Terminal Aerodrome Forecast
Issued by NWS Pocatello, ID

Home | Current Version | Previous Version | Text Only | Print | Product List | Glossary On
Versions: 1 2 3 4 5 6 7 8 9 10 11 12 13 14 15 16 17 18 19
000
FTUS45 KPIH 202300
TAFPIH
TAF
KPIH 202320Z 2100/2124 VRB06KT P6SM SKC
     FM212000 20012KT P6SM -SHRA VCTS SCT090 BKN150CB=

USA.gov is the U.S. government's official web portal to all federal, state and local government web resources and services.